sensor_id;sensor_type;location;lat;lon;timestamp;P1;durP1;ratioP1;P2;durP2;ratioP2
52266;SDS011;38223;50.940;4.034;2022-08-30T00:00:13;12.33;;;5.62;;
52266;SDS011;38223;50.940;4.034;2022-08-30T00:03:01;8.73;;;4.78;;
52266;SDS011;38223;50.940;4.034;2022-08-30T00:05:39;6.60;;;4.62;;
52266;SDS011;38223;50.940;4.034;2022-08-30T00:08:09;9.60;;;5.10;;
52266;SDS011;38223;50.940;4.034;2022-08-30T00:10:46;7.92;;;4.90;;
52266;SDS011;38223;50.940;4.034;2022-08-30T00:13:22;5.90;;;5.27;;
52266;SDS011;38223;50.940;4.034;2022-08-30T00:16:09;9.28;;;5.10;;
52266;SDS011;38223;50.940;4.034;2022-08-30T00:18:44;7.33;;;4.87;;
52266;SDS011;38223;50.940;4.034;2022-08-30T00:21:16;7.75;;;4.62;;
52266;SDS011;38223;50.940;4.034;2022-08-30T00:23:54;9.38;;;5.80;;
52266;SDS011;38223;50.940;4.034;2022-08-30T00:26:28;10.88;;;5.62;;
52266;SDS011;38223;50.940;4.034;2022-08-30T00:29:03;11.90;;;5.33;;
52266;SDS011;38223;50.940;4.034;2022-08-30T00:31:40;10.50;;;5.80;;
52266;SDS011;38223;50.940;4.034;2022-08-30T00:34:20;11.33;;;5.80;;
52266;SDS011;38223;50.940;4.034;2022-08-30T00:36:53;11.65;;;6.20;;
52266;SDS011;38223;50.940;4.034;2022-08-30T00:39:28;11.68;;;5.62;;
52266;SDS011;38223;50.940;4.034;2022-08-30T00:42:06;9.10;;;6.90;;
52266;SDS011;38223;50.940;4.034;2022-08-30T00:44:47;8.17;;;6.20;;
52266;SDS011;38223;50.940;4.034;2022-08-30T00:47:22;9.28;;;6.42;;
52266;SDS011;38223;50.940;4.034;2022-08-30T00:50:04;9.03;;;6.10;;
52266;SDS011;38223;50.940;4.034;2022-08-30T00:52:41;9.38;;;6.20;;
52266;SDS011;38223;50.940;4.034;2022-08-30T00:55:19;10.23;;;6.62;;
52266;SDS011;38223;50.940;4.034;2022-08-30T00:57:53;9.25;;;6.25;;
52266;SDS011;38223;50.940;4.034;2022-08-30T01:00:31;9.35;;;6.62;;
52266;SDS011;38223;50.940;4.034;2022-08-30T01:03:03;9.80;;;6.60;;
52266;SDS011;38223;50.940;4.034;2022-08-30T01:05:37;9.63;;;6.53;;
52266;SDS011;38223;50.940;4.034;2022-08-30T01:08:13;12.00;;;7.37;;
52266;SDS011;38223;50.940;4.034;2022-08-30T01:10:46;12.35;;;6.67;;
52266;SDS011;38223;50.940;4.034;2022-08-30T01:13:28;11.75;;;6.65;;
52266;SDS011;38223;50.940;4.034;2022-08-30T01:15:58;12.05;;;6.67;;
52266;SDS011;38223;50.940;4.034;2022-08-30T01:18:36;8.25;;;6.72;;
52266;SDS011;38223;50.940;4.034;2022-08-30T01:24:04;11.30;;;6.90;;
52266;SDS011;38223;50.940;4.034;2022-08-30T01:26:42;10.63;;;6.72;;
52266;SDS011;38223;50.940;4.034;2022-08-30T01:29:20;13.95;;;7.33;;
52266;SDS011;38223;50.940;4.034;2022-08-30T01:31:58;18.30;;;7.90;;
52266;SDS011;38223;50.940;4.034;2022-08-30T01:34:38;9.10;;;6.95;;
52266;SDS011;38223;50.940;4.034;2022-08-30T01:37:11;12.05;;;7.78;;
52266;SDS011;38223;50.940;4.034;2022-08-30T01:39:45;13.38;;;7.47;;
52266;SDS011;38223;50.940;4.034;2022-08-30T01:42:22;11.75;;;7.20;;
52266;SDS011;38223;50.940;4.034;2022-08-30T01:44:56;13.78;;;7.80;;
52266;SDS011;38223;50.940;4.034;2022-08-30T01:47:33;12.98;;;7.58;;
52266;SDS011;38223;50.940;4.034;2022-08-30T01:50:10;12.73;;;8.18;;
52266;SDS011;38223;50.940;4.034;2022-08-30T01:52:45;11.97;;;8.05;;
52266;SDS011;38223;50.940;4.034;2022-08-30T01:55:19;9.35;;;7.47;;
52266;SDS011;38223;50.940;4.034;2022-08-30T01:57:55;17.12;;;8.23;;
52266;SDS011;38223;50.940;4.034;2022-08-30T02:00:32;16.15;;;7.92;;
52266;SDS011;38223;50.940;4.034;2022-08-30T02:03:06;12.15;;;7.58;;
52266;SDS011;38223;50.940;4.034;2022-08-30T02:05:38;13.28;;;7.37;;
52266;SDS011;38223;50.940;4.034;2022-08-30T02:08:15;11.00;;;8.28;;
52266;SDS011;38223;50.940;4.034;2022-08-30T02:11:01;11.22;;;8.00;;
52266;SDS011;38223;50.940;4.034;2022-08-30T02:13:44;12.85;;;8.20;;
52266;SDS011;38223;50.940;4.034;2022-08-30T02:16:22;10.38;;;7.97;;
52266;SDS011;38223;50.940;4.034;2022-08-30T02:18:57;15.98;;;7.87;;
52266;SDS011;38223;50.940;4.034;2022-08-30T02:21:34;12.20;;;7.78;;
52266;SDS011;38223;50.940;4.034;2022-08-30T02:24:15;11.03;;;8.15;;
52266;SDS011;38223;50.940;4.034;2022-08-30T02:26:50;15.50;;;8.48;;
52266;SDS011;38223;50.940;4.034;2022-08-30T02:29:23;8.75;;;7.53;;
52266;SDS011;38223;50.940;4.034;2022-08-30T02:32:06;11.55;;;7.55;;
52266;SDS011;38223;50.940;4.034;2022-08-30T02:34:47;11.63;;;8.00;;
52266;SDS011;38223;50.940;4.034;2022-08-30T02:37:13;11.15;;;8.08;;
52266;SDS011;38223;50.940;4.034;2022-08-30T02:39:53;18.70;;;8.40;;
52266;SDS011;38223;50.940;4.034;2022-08-30T02:42:26;13.38;;;8.23;;
52266;SDS011;38223;50.940;4.034;2022-08-30T02:45:04;9.58;;;7.75;;
52266;SDS011;38223;50.940;4.034;2022-08-30T02:47:57;11.38;;;7.75;;
52266;SDS011;38223;50.940;4.034;2022-08-30T02:50:31;12.50;;;7.87;;
52266;SDS011;38223;50.940;4.034;2022-08-30T02:53:05;10.82;;;7.72;;
52266;SDS011;38223;50.940;4.034;2022-08-30T02:55:39;8.38;;;7.05;;
52266;SDS011;38223;50.940;4.034;2022-08-30T02:58:20;11.78;;;7.25;;
52266;SDS011;38223;50.940;4.034;2022-08-30T03:00:54;11.75;;;7.60;;
52266;SDS011;38223;50.940;4.034;2022-08-30T03:03:29;11.83;;;7.47;;
52266;SDS011;38223;50.940;4.034;2022-08-30T03:06:05;13.32;;;7.83;;
52266;SDS011;38223;50.940;4.034;2022-08-30T03:08:40;15.98;;;7.90;;
52266;SDS011;38223;50.940;4.034;2022-08-30T03:11:17;12.63;;;7.87;;
52266;SDS011;38223;50.940;4.034;2022-08-30T03:13:54;13.55;;;7.80;;
52266;SDS011;38223;50.940;4.034;2022-08-30T03:16:26;13.03;;;7.83;;
52266;SDS011;38223;50.940;4.034;2022-08-30T03:18:59;11.80;;;7.47;;
52266;SDS011;38223;50.940;4.034;2022-08-30T03:21:32;18.27;;;7.45;;
52266;SDS011;38223;50.940;4.034;2022-08-30T03:24:09;13.93;;;7.87;;
52266;SDS011;38223;50.940;4.034;2022-08-30T03:26:45;12.93;;;7.60;;
52266;SDS011;38223;50.940;4.034;2022-08-30T03:29:21;11.48;;;7.70;;
52266;SDS011;38223;50.940;4.034;2022-08-30T03:31:57;17.52;;;7.10;;
52266;SDS011;38223;50.940;4.034;2022-08-30T03:34:34;12.30;;;7.37;;
52266;SDS011;38223;50.940;4.034;2022-08-30T03:37:08;11.30;;;7.53;;
52266;SDS011;38223;50.940;4.034;2022-08-30T03:39:45;9.98;;;6.67;;
52266;SDS011;38223;50.940;4.034;2022-08-30T03:42:22;8.73;;;7.12;;
52266;SDS011;38223;50.940;4.034;2022-08-30T03:44:55;12.90;;;6.87;;
52266;SDS011;38223;50.940;4.034;2022-08-30T03:47:34;10.30;;;7.42;;
52266;SDS011;38223;50.940;4.034;2022-08-30T03:50:06;10.88;;;7.40;;
52266;SDS011;38223;50.940;4.034;2022-08-30T03:52:41;14.73;;;7.78;;
52266;SDS011;38223;50.940;4.034;2022-08-30T03:55:13;10.95;;;7.60;;
52266;SDS011;38223;50.940;4.034;2022-08-30T03:57:44;11.90;;;7.42;;
52266;SDS011;38223;50.940;4.034;2022-08-30T04:00:24;13.55;;;7.75;;
52266;SDS011;38223;50.940;4.034;2022-08-30T04:02:55;10.68;;;7.25;;
52266;SDS011;38223;50.940;4.034;2022-08-30T04:05:34;11.20;;;6.78;;
52266;SDS011;38223;50.940;4.034;2022-08-30T04:08:12;10.85;;;6.53;;
52266;SDS011;38223;50.940;4.034;2022-08-30T04:10:46;16.23;;;7.58;;
52266;SDS011;38223;50.940;4.034;2022-08-30T04:13:24;8.90;;;7.10;;
52266;SDS011;38223;50.940;4.034;2022-08-30T04:16:02;12.37;;;7.62;;
52266;SDS011;38223;50.940;4.034;2022-08-30T04:18:37;12.20;;;7.75;;
52266;SDS011;38223;50.940;4.034;2022-08-30T04:21:16;15.55;;;7.20;;
52266;SDS011;38223;50.940;4.034;2022-08-30T04:23:52;14.58;;;6.45;;
52266;SDS011;38223;50.940;4.034;2022-08-30T04:26:27;14.10;;;7.47;;
52266;SDS011;38223;50.940;4.034;2022-08-30T04:29:04;11.05;;;7.22;;
52266;SDS011;38223;50.940;4.034;2022-08-30T04:31:46;11.53;;;7.50;;
52266;SDS011;38223;50.940;4.034;2022-08-30T04:34:19;16.23;;;7.37;;
52266;SDS011;38223;50.940;4.034;2022-08-30T04:36:58;12.33;;;7.00;;
52266;SDS011;38223;50.940;4.034;2022-08-30T04:39:33;14.40;;;7.22;;
52266;SDS011;38223;50.940;4.034;2022-08-30T04:42:08;11.28;;;7.80;;
52266;SDS011;38223;50.940;4.034;2022-08-30T04:44:43;10.58;;;7.90;;
52266;SDS011;38223;50.940;4.034;2022-08-30T04:47:17;9.73;;;7.65;;
52266;SDS011;38223;50.940;4.034;2022-08-30T04:49:55;11.75;;;7.50;;
52266;SDS011;38223;50.940;4.034;2022-08-30T04:52:32;13.00;;;7.85;;
52266;SDS011;38223;50.940;4.034;2022-08-30T04:55:14;12.90;;;8.00;;
52266;SDS011;38223;50.940;4.034;2022-08-30T04:57:47;11.08;;;8.03;;
52266;SDS011;38223;50.940;4.034;2022-08-30T05:00:22;15.18;;;8.55;;
52266;SDS011;38223;50.940;4.034;2022-08-30T05:02:57;13.20;;;7.97;;
52266;SDS011;38223;50.940;4.034;2022-08-30T05:05:40;12.98;;;8.50;;
52266;SDS011;38223;50.940;4.034;2022-08-30T05:08:12;10.18;;;8.43;;
52266;SDS011;38223;50.940;4.034;2022-08-30T05:10:44;9.33;;;7.37;;
52266;SDS011;38223;50.940;4.034;2022-08-30T05:13:29;18.00;;;7.87;;
52266;SDS011;38223;50.940;4.034;2022-08-30T05:16:04;12.68;;;8.48;;
52266;SDS011;38223;50.940;4.034;2022-08-30T05:18:40;15.55;;;8.18;;
52266;SDS011;38223;50.940;4.034;2022-08-30T05:21:17;13.55;;;7.87;;
52266;SDS011;38223;50.940;4.034;2022-08-30T05:23:56;10.93;;;8.03;;
52266;SDS011;38223;50.940;4.034;2022-08-30T05:26:36;13.05;;;8.80;;
52266;SDS011;38223;50.940;4.034;2022-08-30T05:29:04;19.57;;;8.78;;
52266;SDS011;38223;50.940;4.034;2022-08-30T05:31:38;13.58;;;8.60;;
52266;SDS011;38223;50.940;4.034;2022-08-30T05:34:14;9.53;;;7.92;;
52266;SDS011;38223;50.940;4.034;2022-08-30T05:36:53;12.35;;;7.90;;
52266;SDS011;38223;50.940;4.034;2022-08-30T05:39:24;13.83;;;8.93;;
52266;SDS011;38223;50.940;4.034;2022-08-30T05:42:03;15.13;;;8.70;;
52266;SDS011;38223;50.940;4.034;2022-08-30T05:44:37;12.20;;;8.83;;
52266;SDS011;38223;50.940;4.034;2022-08-30T05:47:18;14.35;;;9.10;;
52266;SDS011;38223;50.940;4.034;2022-08-30T05:49:54;13.28;;;8.98;;
52266;SDS011;38223;50.940;4.034;2022-08-30T05:52:32;18.17;;;8.63;;
52266;SDS011;38223;50.940;4.034;2022-08-30T05:55:07;16.93;;;8.65;;
52266;SDS011;38223;50.940;4.034;2022-08-30T05:57:45;12.58;;;8.68;;
52266;SDS011;38223;50.940;4.034;2022-08-30T06:00:20;11.70;;;8.50;;
52266;SDS011;38223;50.940;4.034;2022-08-30T06:02:57;14.28;;;8.60;;
52266;SDS011;38223;50.940;4.034;2022-08-30T06:05:31;16.40;;;8.30;;
52266;SDS011;38223;50.940;4.034;2022-08-30T06:08:03;14.47;;;8.43;;
52266;SDS011;38223;50.940;4.034;2022-08-30T06:10:36;9.83;;;8.88;;
52266;SDS011;38223;50.940;4.034;2022-08-30T06:13:12;11.93;;;9.00;;
52266;SDS011;38223;50.940;4.034;2022-08-30T06:15:47;9.50;;;8.30;;
52266;SDS011;38223;50.940;4.034;2022-08-30T06:18:19;11.35;;;8.50;;
52266;SDS011;38223;50.940;4.034;2022-08-30T06:20:59;10.08;;;8.98;;
52266;SDS011;38223;50.940;4.034;2022-08-30T06:23:30;15.08;;;8.70;;
52266;SDS011;38223;50.940;4.034;2022-08-30T06:26:06;11.15;;;8.98;;
52266;SDS011;38223;50.940;4.034;2022-08-30T06:28:41;12.95;;;8.93;;
52266;SDS011;38223;50.940;4.034;2022-08-30T06:31:13;13.32;;;9.28;;
52266;SDS011;38223;50.940;4.034;2022-08-30T06:33:51;9.30;;;8.40;;
52266;SDS011;38223;50.940;4.034;2022-08-30T06:36:27;12.43;;;9.65;;
52266;SDS011;38223;50.940;4.034;2022-08-30T06:38:59;13.00;;;8.83;;
52266;SDS011;38223;50.940;4.034;2022-08-30T06:41:34;12.90;;;9.35;;
52266;SDS011;38223;50.940;4.034;2022-08-30T06:44:11;11.22;;;9.15;;
52266;SDS011;38223;50.940;4.034;2022-08-30T06:46:41;12.53;;;10.38;;
52266;SDS011;38223;50.940;4.034;2022-08-30T06:49:15;11.80;;;9.43;;
52266;SDS011;38223;50.940;4.034;2022-08-30T06:51:48;9.58;;;8.80;;
52266;SDS011;38223;50.940;4.034;2022-08-30T06:54:20;9.75;;;8.30;;
52266;SDS011;38223;50.940;4.034;2022-08-30T06:56:50;9.78;;;8.88;;
52266;SDS011;38223;50.940;4.034;2022-08-30T06:59:24;8.83;;;8.03;;
52266;SDS011;38223;50.940;4.034;2022-08-30T07:01:55;9.70;;;8.40;;
52266;SDS011;38223;50.940;4.034;2022-08-30T07:04:35;8.55;;;7.75;;
52266;SDS011;38223;50.940;4.034;2022-08-30T07:07:25;12.45;;;9.10;;
52266;SDS011;38223;50.940;4.034;2022-08-30T07:10:00;11.78;;;8.20;;
52266;SDS011;38223;50.940;4.034;2022-08-30T07:12:38;12.23;;;8.08;;
52266;SDS011;38223;50.940;4.034;2022-08-30T07:15:12;9.78;;;6.55;;
52266;SDS011;38223;50.940;4.034;2022-08-30T07:20:47;9.68;;;8.70;;
52266;SDS011;38223;50.940;4.034;2022-08-30T07:23:18;7.53;;;5.50;;
52266;SDS011;38223;50.940;4.034;2022-08-30T07:25:56;8.73;;;7.85;;
52266;SDS011;38223;50.940;4.034;2022-08-30T07:28:26;7.22;;;5.10;;
52266;SDS011;38223;50.940;4.034;2022-08-30T07:31:00;9.13;;;8.35;;
52266;SDS011;38223;50.940;4.034;2022-08-30T07:36:07;8.88;;;8.10;;
52266;SDS011;38223;50.940;4.034;2022-08-30T07:38:39;11.25;;;8.90;;
52266;SDS011;38223;50.940;4.034;2022-08-30T07:41:15;9.03;;;8.08;;
52266;SDS011;38223;50.940;4.034;2022-08-30T07:43:47;9.60;;;8.60;;
52266;SDS011;38223;50.940;4.034;2022-08-30T07:46:19;9.43;;;5.15;;
52266;SDS011;38223;50.940;4.034;2022-08-30T07:48:53;10.35;;;7.83;;
52266;SDS011;38223;50.940;4.034;2022-08-30T07:51:31;7.95;;;6.17;;
52266;SDS011;38223;50.940;4.034;2022-08-30T07:54:01;10.18;;;5.62;;
52266;SDS011;38223;50.940;4.034;2022-08-30T07:56:37;10.38;;;7.42;;
52266;SDS011;38223;50.940;4.034;2022-08-30T07:59:10;6.17;;;5.55;;
52266;SDS011;38223;50.940;4.034;2022-08-30T08:01:45;9.20;;;6.00;;
52266;SDS011;38223;50.940;4.034;2022-08-30T08:04:19;6.87;;;6.22;;
52266;SDS011;38223;50.940;4.034;2022-08-30T08:06:52;9.08;;;8.15;;
52266;SDS011;38223;50.940;4.034;2022-08-30T08:09:24;10.10;;;8.78;;
52266;SDS011;38223;50.940;4.034;2022-08-30T08:11:55;11.50;;;7.95;;
52266;SDS011;38223;50.940;4.034;2022-08-30T08:14:26;7.22;;;6.55;;
52266;SDS011;38223;50.940;4.034;2022-08-30T08:17:12;9.48;;;7.90;;
52266;SDS011;38223;50.940;4.034;2022-08-30T08:19:45;7.00;;;6.40;;
52266;SDS011;38223;50.940;4.034;2022-08-30T08:22:24;6.92;;;6.35;;
52266;SDS011;38223;50.940;4.034;2022-08-30T08:25:06;10.68;;;7.83;;
52266;SDS011;38223;50.940;4.034;2022-08-30T08:27:41;8.13;;;7.30;;
52266;SDS011;38223;50.940;4.034;2022-08-30T08:30:22;8.83;;;8.08;;
52266;SDS011;38223;50.940;4.034;2022-08-30T08:33:00;10.23;;;8.45;;
52266;SDS011;38223;50.940;4.034;2022-08-30T08:35:40;9.30;;;5.90;;
52266;SDS011;38223;50.940;4.034;2022-08-30T08:38:21;8.75;;;7.65;;
52266;SDS011;38223;50.940;4.034;2022-08-30T08:41:07;11.97;;;8.28;;
52266;SDS011;38223;50.940;4.034;2022-08-30T08:43:54;10.32;;;7.53;;
52266;SDS011;38223;50.940;4.034;2022-08-30T08:46:32;12.13;;;8.60;;
52266;SDS011;38223;50.940;4.034;2022-08-30T08:49:04;11.68;;;5.97;;
52266;SDS011;38223;50.940;4.034;2022-08-30T08:51:37;10.40;;;6.65;;
52266;SDS011;38223;50.940;4.034;2022-08-30T08:54:37;7.28;;;6.67;;
52266;SDS011;38223;50.940;4.034;2022-08-30T08:57:12;8.55;;;5.92;;
52266;SDS011;38223;50.940;4.034;2022-08-30T08:59:48;13.50;;;6.83;;
52266;SDS011;38223;50.940;4.034;2022-08-30T09:02:24;6.58;;;5.62;;
52266;SDS011;38223;50.940;4.034;2022-08-30T09:05:00;9.08;;;6.05;;
52266;SDS011;38223;50.940;4.034;2022-08-30T09:07:38;9.30;;;6.92;;
52266;SDS011;38223;50.940;4.034;2022-08-30T09:10:12;11.05;;;6.97;;
52266;SDS011;38223;50.940;4.034;2022-08-30T09:12:51;7.42;;;6.00;;
52266;SDS011;38223;50.940;4.034;2022-08-30T09:15:28;9.65;;;6.47;;
52266;SDS011;38223;50.940;4.034;2022-08-30T09:18:00;7.75;;;5.78;;
52266;SDS011;38223;50.940;4.034;2022-08-30T09:20:34;6.75;;;5.20;;
52266;SDS011;38223;50.940;4.034;2022-08-30T09:25:53;7.53;;;5.42;;
52266;SDS011;38223;50.940;4.034;2022-08-30T09:31:21;9.13;;;4.40;;
52266;SDS011;38223;50.940;4.034;2022-08-30T09:34:06;9.03;;;4.78;;
52266;SDS011;38223;50.940;4.034;2022-08-30T09:36:41;7.47;;;5.03;;
52266;SDS011;38223;50.940;4.034;2022-08-30T09:39:30;8.35;;;5.33;;
52266;SDS011;38223;50.940;4.034;2022-08-30T09:42:17;8.48;;;4.50;;
52266;SDS011;38223;50.940;4.034;2022-08-30T09:44:56;6.53;;;4.22;;
52266;SDS011;38223;50.940;4.034;2022-08-30T09:47:39;6.35;;;4.00;;
52266;SDS011;38223;50.940;4.034;2022-08-30T09:50:15;9.28;;;5.10;;
52266;SDS011;38223;50.940;4.034;2022-08-30T09:52:59;8.13;;;4.25;;
52266;SDS011;38223;50.940;4.034;2022-08-30T09:55:48;3.92;;;3.60;;
52266;SDS011;38223;50.940;4.034;2022-08-30T10:01:35;6.45;;;4.10;;
52266;SDS011;38223;50.940;4.034;2022-08-30T10:04:28;6.45;;;3.85;;
52266;SDS011;38223;50.940;4.034;2022-08-30T10:07:11;4.33;;;3.17;;
52266;SDS011;38223;50.940;4.034;2022-08-30T10:12:42;6.85;;;3.20;;
52266;SDS011;38223;50.940;4.034;2022-08-30T10:15:37;6.37;;;3.98;;
52266;SDS011;38223;50.940;4.034;2022-08-30T10:21:27;5.12;;;3.37;;
52266;SDS011;38223;50.940;4.034;2022-08-30T10:24:19;6.05;;;3.10;;
52266;SDS011;38223;50.940;4.034;2022-08-30T10:26:59;7.78;;;3.10;;
52266;SDS011;38223;50.940;4.034;2022-08-30T10:29:42;5.95;;;3.25;;
52266;SDS011;38223;50.940;4.034;2022-08-30T10:32:19;5.62;;;3.37;;
52266;SDS011;38223;50.940;4.034;2022-08-30T10:35:06;5.20;;;3.42;;
52266;SDS011;38223;50.940;4.034;2022-08-30T10:37:49;5.35;;;3.10;;
52266;SDS011;38223;50.940;4.034;2022-08-30T10:40:26;10.23;;;3.37;;
52266;SDS011;38223;50.940;4.034;2022-08-30T10:43:29;8.08;;;2.83;;
52266;SDS011;38223;50.940;4.034;2022-08-30T10:46:08;4.03;;;3.60;;
52266;SDS011;38223;50.940;4.034;2022-08-30T10:48:43;4.67;;;3.45;;
52266;SDS011;38223;50.940;4.034;2022-08-30T10:51:22;5.80;;;3.02;;
52266;SDS011;38223;50.940;4.034;2022-08-30T10:54:14;6.60;;;3.37;;
52266;SDS011;38223;50.940;4.034;2022-08-30T10:56:54;4.50;;;2.80;;
52266;SDS011;38223;50.940;4.034;2022-08-30T10:59:34;6.50;;;3.55;;
52266;SDS011;38223;50.940;4.034;2022-08-30T11:08:29;3.87;;;2.62;;
52266;SDS011;38223;50.940;4.034;2022-08-30T11:14:25;6.03;;;2.45;;
52266;SDS011;38223;50.940;4.034;2022-08-30T11:17:02;7.97;;;3.30;;
52266;SDS011;38223;50.940;4.034;2022-08-30T11:19:38;6.47;;;3.12;;
52266;SDS011;38223;50.940;4.034;2022-08-30T11:22:12;6.97;;;2.95;;
52266;SDS011;38223;50.940;4.034;2022-08-30T11:25:10;9.43;;;3.12;;
52266;SDS011;38223;50.940;4.034;2022-08-30T11:27:50;3.98;;;2.67;;
52266;SDS011;38223;50.940;4.034;2022-08-30T11:33:02;5.87;;;2.77;;
52266;SDS011;38223;50.940;4.034;2022-08-30T11:35:46;6.17;;;3.22;;
52266;SDS011;38223;50.940;4.034;2022-08-30T11:41:10;7.78;;;3.35;;
52266;SDS011;38223;50.940;4.034;2022-08-30T11:46:38;5.72;;;2.65;;
52266;SDS011;38223;50.940;4.034;2022-08-30T11:55:15;8.80;;;3.90;;
52266;SDS011;38223;50.940;4.034;2022-08-30T11:57:55;5.20;;;2.85;;
52266;SDS011;38223;50.940;4.034;2022-08-30T12:00:44;6.30;;;3.08;;
52266;SDS011;38223;50.940;4.034;2022-08-30T12:06:05;5.08;;;3.10;;
52266;SDS011;38223;50.940;4.034;2022-08-30T12:08:46;5.60;;;3.45;;
52266;SDS011;38223;50.940;4.034;2022-08-30T12:14:11;6.45;;;3.70;;
52266;SDS011;38223;50.940;4.034;2022-08-30T12:16:44;3.90;;;3.20;;
52266;SDS011;38223;50.940;4.034;2022-08-30T12:19:47;4.37;;;2.75;;
52266;SDS011;38223;50.940;4.034;2022-08-30T12:22:22;9.55;;;3.40;;
52266;SDS011;38223;50.940;4.034;2022-08-30T12:24:54;4.53;;;2.90;;
52266;SDS011;38223;50.940;4.034;2022-08-30T12:27:29;5.12;;;3.02;;
52266;SDS011;38223;50.940;4.034;2022-08-30T12:30:08;4.15;;;3.27;;
52266;SDS011;38223;50.940;4.034;2022-08-30T12:32:46;6.37;;;3.52;;
52266;SDS011;38223;50.940;4.034;2022-08-30T12:35:18;5.70;;;3.22;;
52266;SDS011;38223;50.940;4.034;2022-08-30T12:37:57;10.32;;;3.50;;
52266;SDS011;38223;50.940;4.034;2022-08-30T12:40:33;8.08;;;3.83;;
52266;SDS011;38223;50.940;4.034;2022-08-30T12:43:23;6.67;;;3.12;;
52266;SDS011;38223;50.940;4.034;2022-08-30T12:45:43;4.05;;;3.22;;
52266;SDS011;38223;50.940;4.034;2022-08-30T12:48:18;5.65;;;3.20;;
52266;SDS011;38223;50.940;4.034;2022-08-30T12:51:06;6.15;;;3.10;;
52266;SDS011;38223;50.940;4.034;2022-08-30T12:53:40;4.08;;;3.25;;
52266;SDS011;38223;50.940;4.034;2022-08-30T12:56:16;5.03;;;3.08;;
52266;SDS011;38223;50.940;4.034;2022-08-30T12:58:53;7.83;;;3.30;;
52266;SDS011;38223;50.940;4.034;2022-08-30T13:01:35;4.80;;;3.02;;
52266;SDS011;38223;50.940;4.034;2022-08-30T13:04:24;5.53;;;3.40;;
52266;SDS011;38223;50.940;4.034;2022-08-30T13:06:59;4.95;;;3.35;;
52266;SDS011;38223;50.940;4.034;2022-08-30T13:09:38;5.83;;;3.02;;
52266;SDS011;38223;50.940;4.034;2022-08-30T13:12:22;10.10;;;2.77;;
52266;SDS011;38223;50.940;4.034;2022-08-30T13:15:10;5.87;;;3.33;;
52266;SDS011;38223;50.940;4.034;2022-08-30T13:17:48;4.15;;;2.83;;
52266;SDS011;38223;50.940;4.034;2022-08-30T13:20:22;5.58;;;2.72;;
52266;SDS011;38223;50.940;4.034;2022-08-30T13:23:08;6.28;;;2.65;;
52266;SDS011;38223;50.940;4.034;2022-08-30T13:25:45;5.12;;;2.85;;
52266;SDS011;38223;50.940;4.034;2022-08-30T13:28:22;6.78;;;3.10;;
52266;SDS011;38223;50.940;4.034;2022-08-30T13:30:55;6.45;;;2.62;;
52266;SDS011;38223;50.940;4.034;2022-08-30T13:33:35;6.25;;;2.77;;
52266;SDS011;38223;50.940;4.034;2022-08-30T13:36:16;3.70;;;2.50;;
52266;SDS011;38223;50.940;4.034;2022-08-30T13:38:48;6.30;;;2.40;;
52266;SDS011;38223;50.940;4.034;2022-08-30T13:41:24;4.10;;;2.33;;
52266;SDS011;38223;50.940;4.034;2022-08-30T13:44:02;5.70;;;2.58;;
52266;SDS011;38223;50.940;4.034;2022-08-30T13:46:38;3.87;;;2.55;;
52266;SDS011;38223;50.940;4.034;2022-08-30T13:49:30;5.40;;;2.40;;
52266;SDS011;38223;50.940;4.034;2022-08-30T13:52:05;8.33;;;2.65;;
52266;SDS011;38223;50.940;4.034;2022-08-30T13:54:41;6.95;;;2.50;;
52266;SDS011;38223;50.940;4.034;2022-08-30T13:57:15;5.17;;;2.37;;
52266;SDS011;38223;50.940;4.034;2022-08-30T13:59:52;5.30;;;2.37;;
52266;SDS011;38223;50.940;4.034;2022-08-30T14:02:27;4.50;;;2.67;;
52266;SDS011;38223;50.940;4.034;2022-08-30T14:04:59;7.42;;;2.42;;
52266;SDS011;38223;50.940;4.034;2022-08-30T14:07:43;7.25;;;2.70;;
52266;SDS011;38223;50.940;4.034;2022-08-30T14:10:20;6.05;;;2.22;;
52266;SDS011;38223;50.940;4.034;2022-08-30T14:12:59;5.83;;;2.00;;
52266;SDS011;38223;50.940;4.034;2022-08-30T14:15:31;5.28;;;2.10;;
52266;SDS011;38223;50.940;4.034;2022-08-30T14:18:06;5.58;;;2.25;;
52266;SDS011;38223;50.940;4.034;2022-08-30T14:20:40;4.37;;;2.12;;
52266;SDS011;38223;50.940;4.034;2022-08-30T14:23:13;3.90;;;2.15;;
52266;SDS011;38223;50.940;4.034;2022-08-30T14:25:46;5.72;;;2.05;;
52266;SDS011;38223;50.940;4.034;2022-08-30T14:28:27;4.60;;;2.00;;
52266;SDS011;38223;50.940;4.034;2022-08-30T14:31:00;7.12;;;2.12;;
52266;SDS011;38223;50.940;4.034;2022-08-30T14:33:28;4.85;;;2.20;;
52266;SDS011;38223;50.940;4.034;2022-08-30T14:36:06;4.85;;;2.25;;
52266;SDS011;38223;50.940;4.034;2022-08-30T14:38:40;8.45;;;1.98;;
52266;SDS011;38223;50.940;4.034;2022-08-30T14:41:24;4.70;;;2.10;;
52266;SDS011;38223;50.940;4.034;2022-08-30T14:44:06;5.42;;;1.95;;
52266;SDS011;38223;50.940;4.034;2022-08-30T14:46:46;5.15;;;2.35;;
52266;SDS011;38223;50.940;4.034;2022-08-30T14:49:20;5.53;;;2.00;;
52266;SDS011;38223;50.940;4.034;2022-08-30T14:51:52;5.97;;;2.10;;
52266;SDS011;38223;50.940;4.034;2022-08-30T14:54:37;4.03;;;1.80;;
52266;SDS011;38223;50.940;4.034;2022-08-30T14:57:23;5.78;;;2.50;;
52266;SDS011;38223;50.940;4.034;2022-08-30T15:00:13;3.72;;;2.02;;
52266;SDS011;38223;50.940;4.034;2022-08-30T15:02:54;4.15;;;1.50;;
52266;SDS011;38223;50.940;4.034;2022-08-30T15:05:31;5.87;;;1.90;;
52266;SDS011;38223;50.940;4.034;2022-08-30T15:08:12;4.67;;;1.67;;
52266;SDS011;38223;50.940;4.034;2022-08-30T15:10:49;6.97;;;2.10;;
52266;SDS011;38223;50.940;4.034;2022-08-30T15:13:31;5.17;;;2.10;;
52266;SDS011;38223;50.940;4.034;2022-08-30T15:16:22;4.87;;;2.02;;
52266;SDS011;38223;50.940;4.034;2022-08-30T15:18:54;5.45;;;1.90;;
52266;SDS011;38223;50.940;4.034;2022-08-30T15:21:42;4.35;;;2.27;;
52266;SDS011;38223;50.940;4.034;2022-08-30T15:24:14;4.35;;;2.15;;
52266;SDS011;38223;50.940;4.034;2022-08-30T15:26:54;5.45;;;1.70;;
52266;SDS011;38223;50.940;4.034;2022-08-30T15:29:24;5.12;;;1.70;;
52266;SDS011;38223;50.940;4.034;2022-08-30T15:32:06;3.77;;;1.90;;
52266;SDS011;38223;50.940;4.034;2022-08-30T15:34:44;4.75;;;2.12;;
52266;SDS011;38223;50.940;4.034;2022-08-30T15:37:33;6.83;;;1.80;;
52266;SDS011;38223;50.940;4.034;2022-08-30T15:40:04;5.55;;;1.90;;
52266;SDS011;38223;50.940;4.034;2022-08-30T15:42:48;3.22;;;1.60;;
52266;SDS011;38223;50.940;4.034;2022-08-30T15:45:24;4.95;;;1.95;;
52266;SDS011;38223;50.940;4.034;2022-08-30T15:48:02;4.78;;;1.70;;
52266;SDS011;38223;50.940;4.034;2022-08-30T15:50:34;5.85;;;1.75;;
52266;SDS011;38223;50.940;4.034;2022-08-30T15:53:14;7.42;;;1.52;;
52266;SDS011;38223;50.940;4.034;2022-08-30T15:55:54;4.58;;;1.87;;
52266;SDS011;38223;50.940;4.034;2022-08-30T15:58:27;4.87;;;1.82;;
52266;SDS011;38223;50.940;4.034;2022-08-30T16:01:20;4.08;;;1.60;;
52266;SDS011;38223;50.940;4.034;2022-08-30T16:03:55;4.62;;;1.77;;
52266;SDS011;38223;50.940;4.034;2022-08-30T16:06:30;4.47;;;1.87;;
52266;SDS011;38223;50.940;4.034;2022-08-30T16:09:00;8.35;;;2.10;;
52266;SDS011;38223;50.940;4.034;2022-08-30T16:11:54;3.77;;;1.75;;
52266;SDS011;38223;50.940;4.034;2022-08-30T16:14:28;5.40;;;1.55;;
52266;SDS011;38223;50.940;4.034;2022-08-30T16:17:05;6.12;;;1.70;;
52266;SDS011;38223;50.940;4.034;2022-08-30T16:19:49;1.80;;;1.45;;
52266;SDS011;38223;50.940;4.034;2022-08-30T16:22:20;2.85;;;2.12;;
52266;SDS011;38223;50.940;4.034;2022-08-30T16:25:00;6.62;;;1.90;;
52266;SDS011;38223;50.940;4.034;2022-08-30T16:27:29;4.47;;;1.95;;
52266;SDS011;38223;50.940;4.034;2022-08-30T16:30:03;5.62;;;2.35;;
52266;SDS011;38223;50.940;4.034;2022-08-30T16:32:36;6.05;;;2.00;;
52266;SDS011;38223;50.940;4.034;2022-08-30T16:35:10;4.65;;;1.98;;